createdAt,value
2019-04-23T00:01:35.513Z,1.85
2019-04-23T00:06:33.800Z,1.87
2019-04-23T00:16:51.239Z,1.70
2019-04-23T00:22:26.027Z,2.08
2019-04-23T00:32:34.590Z,1.52
2019-04-23T00:37:41.870Z,1.50
2019-04-23T00:43:13.475Z,1.42
2019-04-23T00:47:57.666Z,1.72
2019-04-23T00:53:03.849Z,1.77
2019-04-23T01:03:17.130Z,1.77
2019-04-23T01:08:25.223Z,1.77
2019-04-23T01:13:39.482Z,2.00
2019-04-23T01:18:51.640Z,1.80
2019-04-23T01:23:55.852Z,1.87
2019-04-23T01:29:21.338Z,1.82
2019-04-23T01:34:33.309Z,1.75
2019-04-23T01:39:27.494Z,1.72
2019-04-23T01:44:43.968Z,2.10
2019-04-23T01:49:53.938Z,2.10
2019-04-23T01:54:51.995Z,1.98
2019-04-23T02:00:11.642Z,2.02
2019-04-23T02:05:17.357Z,2.25
2019-04-23T02:10:24.927Z,2.10
2019-04-23T02:15:23.073Z,2.20
2019-04-23T02:25:43.989Z,2.10
2019-04-23T02:46:05.750Z,2.22
2019-04-23T02:51:26.788Z,2.03
2019-04-23T02:56:41.451Z,2.03
2019-04-23T03:06:45.955Z,1.97
2019-04-23T03:11:49.489Z,1.93
2019-04-23T03:17:00.378Z,2.17
2019-04-23T03:22:46.017Z,2.02
2019-04-23T03:34:42.360Z,2.13
2019-04-23T03:37:48.900Z,2.13
2019-04-23T03:42:57.592Z,2.07
2019-04-23T03:53:03.371Z,2.67
2019-04-23T03:58:18.912Z,2.60
2019-04-23T04:03:42.417Z,2.30
2019-04-23T04:24:05.161Z,2.40
2019-04-23T04:39:08.131Z,2.23
2019-04-23T04:49:34.216Z,2.20
2019-04-23T04:54:29.081Z,2.20
2019-04-23T04:59:50.250Z,2.63
2019-04-23T05:20:04.573Z,2.73
2019-04-23T05:25:08.857Z,3.00
2019-04-23T05:35:39.958Z,2.67
2019-04-23T05:40:37.962Z,2.83
2019-04-23T05:50:50.638Z,2.60
2019-04-23T05:55:55.487Z,3.10
2019-04-23T06:06:45.245Z,3.00
2019-04-23T06:27:08.804Z,3.20
2019-04-23T06:32:07.871Z,3.50
2019-04-23T06:37:20.249Z,3.70
2019-04-23T06:42:21.247Z,3.73
2019-04-23T06:47:24.775Z,3.47
2019-04-23T06:52:50.609Z,3.60
2019-04-23T06:57:40.535Z,4.30
2019-04-23T07:02:53.777Z,3.90
2019-04-23T07:07:56.381Z,4.13
2019-04-23T07:13:03.186Z,3.80
2019-04-23T07:18:07.454Z,3.80
2019-04-23T07:23:19.374Z,3.90
2019-04-23T07:28:32.546Z,4.30
2019-04-23T07:33:36.030Z,4.40
2019-04-23T07:44:12.585Z,4.70
2019-04-23T07:49:17.904Z,4.30
2019-04-23T07:54:25.878Z,4.30
2019-04-23T08:04:51.553Z,5.00
2019-04-23T08:09:51.423Z,4.80
2019-04-23T08:14:53.227Z,4.70
2019-04-23T08:19:59.672Z,5.20
2019-04-23T08:25:19.345Z,5.53
2019-04-23T08:30:28.904Z,5.30
2019-04-23T08:35:35.859Z,5.10
2019-04-23T08:40:54.391Z,5.53
2019-04-23T08:45:59.586Z,5.83
2019-04-23T08:51:23.707Z,5.30
2019-04-23T08:56:15.631Z,5.67
2019-04-23T09:01:17.295Z,6.05
2019-04-23T09:06:45.462Z,6.60
2019-04-23T09:16:45.829Z,6.30
2019-04-23T09:21:55.990Z,6.85
2019-04-23T09:27:01.960Z,6.90
2019-04-23T09:37:37.304Z,7.55
2019-04-23T09:58:15.420Z,7.60
2019-04-23T10:03:16.449Z,7.65
2019-04-23T10:08:17.485Z,7.85
2019-04-23T10:13:15.838Z,8.18
2019-04-23T10:18:22.389Z,7.72
2019-04-23T10:23:29.496Z,8.23
2019-04-23T10:28:42.347Z,8.23
2019-04-23T10:33:48.211Z,8.10
2019-04-23T10:39:00.567Z,7.87
2019-04-23T10:44:17.300Z,7.78
2019-04-23T10:55:12.066Z,8.18
2019-04-23T11:00:16.071Z,8.65
2019-04-23T11:05:35.945Z,8.28
2019-04-23T11:10:30.109Z,8.68
2019-04-23T11:20:49.273Z,7.83
2019-04-23T11:25:57.748Z,8.13
2019-04-23T11:31:12.064Z,8.53
2019-04-23T11:46:45.648Z,8.85
2019-04-23T12:01:56.310Z,9.08
2019-04-23T12:07:29.517Z,9.08
2019-04-23T12:12:49.989Z,9.15
2019-04-23T12:23:06.305Z,9.40
2019-04-23T12:28:01.424Z,8.78
2019-04-23T12:33:22.132Z,8.88
2019-04-23T12:38:18.965Z,9.18
2019-04-23T12:43:19.204Z,9.10
2019-04-23T12:48:40.705Z,8.90
2019-04-23T12:58:33.826Z,9.50
2019-04-23T13:04:01.376Z,9.93
2019-04-23T13:14:20.402Z,9.53
2019-04-23T13:19:25.667Z,9.80
2019-04-23T13:24:39.208Z,9.38
2019-04-23T13:30:16.916Z,10.20
2019-04-23T13:34:58.997Z,9.95
2019-04-23T13:39:52.218Z,9.73
2019-04-23T13:45:05.334Z,11.00
2019-04-23T13:50:24.852Z,10.75
2019-04-23T13:55:15.308Z,10.82
2019-04-23T14:00:36.779Z,10.23
2019-04-23T14:06:10.844Z,10.88
2019-04-23T14:21:24.972Z,9.10
2019-04-23T14:31:43.444Z,9.55
2019-04-23T14:36:52.148Z,9.20
2019-04-23T14:41:53.748Z,9.33
2019-04-23T14:52:09.042Z,9.38
2019-04-23T14:57:15.915Z,8.55
2019-04-23T15:02:19.466Z,9.23
2019-04-23T15:07:28.239Z,9.70
2019-04-23T15:17:47.119Z,9.20
2019-04-23T15:23:02.745Z,8.98
2019-04-23T15:33:10.925Z,7.62
2019-04-23T15:38:30.853Z,7.80
2019-04-23T15:43:14.567Z,7.92
2019-04-23T15:48:26.564Z,7.67
2019-04-23T15:53:24.647Z,8.00
2019-04-23T15:58:47.102Z,7.60
2019-04-23T16:03:26.242Z,7.05
2019-04-23T16:09:04.833Z,8.48
2019-04-23T16:14:16.998Z,7.83
2019-04-23T16:24:55.240Z,6.65
2019-04-23T16:29:57.742Z,7.12
2019-04-23T16:35:06.767Z,7.42
2019-04-23T16:40:21.471Z,6.70
2019-04-23T16:45:17.904Z,7.33
2019-04-23T16:55:23.999Z,7.05
2019-04-23T17:00:31.270Z,7.50
2019-04-23T17:05:40.957Z,7.30
2019-04-23T17:10:55.478Z,7.70
2019-04-23T17:15:58.394Z,7.92
2019-04-23T17:20:56.674Z,7.83
2019-04-23T17:26:11.274Z,7.50
2019-04-23T17:31:30.873Z,8.68
2019-04-23T17:41:48.649Z,8.68
2019-04-23T17:46:50.895Z,8.40
2019-04-23T17:51:55.841Z,7.97
2019-04-23T17:57:07.640Z,8.43
2019-04-23T18:02:40.964Z,7.95
2019-04-23T18:07:34.007Z,7.90
2019-04-23T18:12:39.085Z,8.50
2019-04-23T18:17:35.927Z,8.15
2019-04-23T18:22:47.239Z,8.18
2019-04-23T18:27:47.162Z,8.10
2019-04-23T18:38:26.114Z,8.68
2019-04-23T18:43:30.130Z,8.40
2019-04-23T19:04:50.943Z,9.00
2019-04-23T19:10:04.294Z,8.93
2019-04-23T19:14:53.978Z,9.13
2019-04-23T19:19:48.615Z,8.83
2019-04-23T19:24:59.532Z,9.15
2019-04-23T19:30:04.128Z,8.98
2019-04-23T19:35:37.285Z,9.03
2019-04-23T19:40:31.469Z,8.75
2019-04-23T19:45:40.571Z,9.13
2019-04-23T19:50:50.501Z,9.13
2019-04-23T19:56:04.006Z,8.70
2019-04-23T20:01:13.805Z,8.70
2019-04-23T20:16:46.777Z,9.18
2019-04-23T20:21:23.216Z,8.93
2019-04-23T20:26:28.976Z,8.50
2019-04-23T20:42:10.795Z,9.48
2019-04-23T20:57:43.869Z,10.05
2019-04-23T21:03:25.811Z,10.68
2019-04-23T21:08:41.095Z,10.50
2019-04-23T21:13:27.410Z,10.72
2019-04-23T21:18:34.590Z,10.00
2019-04-23T21:23:29.780Z,10.30
2019-04-23T21:28:44.083Z,10.53
2019-04-23T21:39:12.067Z,10.53
2019-04-23T21:44:13.457Z,10.90
2019-04-23T21:49:40.757Z,11.38
2019-04-23T21:54:30.100Z,11.48
2019-04-23T21:59:34.527Z,11.90
2019-04-23T22:04:48.016Z,11.50
2019-04-23T22:09:56.223Z,12.03
2019-04-23T22:20:11.068Z,11.93
2019-04-23T22:25:04.476Z,12.50
2019-04-23T22:30:22.382Z,12.53
2019-04-23T22:35:35.965Z,13.40
2019-04-23T22:40:34.501Z,12.50
2019-04-23T22:46:00.033Z,12.50
2019-04-23T22:50:57.551Z,12.88
2019-04-23T22:56:01.797Z,13.00
2019-04-23T23:01:19.643Z,13.72
2019-04-23T23:06:17.393Z,13.53
2019-04-23T23:11:28.727Z,14.33
2019-04-23T23:16:42.723Z,13.43
2019-04-23T23:21:54.553Z,14.03
2019-04-23T23:26:54.247Z,13.22
2019-04-23T23:32:02.195Z,14.10
2019-04-23T23:42:09.706Z,14.23
2019-04-23T23:47:33.275Z,14.58
2019-04-23T23:52:32.433Z,15.18
2019-04-23T23:57:30.474Z,15.08
